Time;durP1;ratioP1;P1;durP2;ratioP2;P2;SDS_P1;SDS_P2;PMS_P1;PMS_P2;Temp;Humidity;BMP_temperature;BMP_pressure;BME280_temperature;BME280_humidity;BME280_pressure;Samples;Min_cycle;Max_cycle;Signal;HPM_P1;HPM_P2
2023/11/05 00:02:25;;;;;;;1.33;0.40;;;;;;;;;;5050713;28;20049;-57
2023/11/05 00:04:51;;;;;;;1.52;0.40;;;;;;;;;;5050150;28;20051;-58
2023/11/05 00:07:17;;;;;;;0.98;0.40;;;;;;;;;;5050948;28;20060;-57
2023/11/05 00:09:43;;;;;;;0.47;0.40;;;;;;;;;;5049784;28;20529;-58
2023/11/05 00:12:09;;;;;;;2.88;0.50;;;;;;;;;;5050683;28;20041;-58
2023/11/05 00:14:35;;;;;;;0.30;0.30;;;;;;;;;;5049491;28;20053;-58
2023/11/05 00:17:02;;;;;;;0.52;0.50;;;;;;;;;;5048332;28;20049;-58
2023/11/05 00:19:28;;;;;;;0.88;0.38;;;;;;;;;;5048736;28;20060;-57
2023/11/05 00:21:54;;;;;;;1.30;0.50;;;;;;;;;;5048170;28;20024;-57
2023/11/05 00:24:20;;;;;;;0.60;0.60;;;;;;;;;;5046622;28;20040;-59
2023/11/05 00:26:46;;;;;;;2.05;0.45;;;;;;;;;;5048130;28;20048;-58
2023/11/05 00:29:15;;;;;;;0.20;0.20;;;;;;;;;;5042214;28;20491;-59
2023/11/05 00:31:44;;;;;;;0.98;0.40;;;;;;;;;;5047818;28;20053;-59
2023/11/05 00:34:10;;;;;;;0.50;0.35;;;;;;;;;;5045440;28;20532;-58
2023/11/05 00:36:36;;;;;;;0.50;0.35;;;;;;;;;;5047534;28;20414;-58
2023/11/05 00:39:02;;;;;;;1.00;0.32;;;;;;;;;;5046665;28;20422;-58
2023/11/05 00:41:29;;;;;;;0.22;0.20;;;;;;;;;;5050536;28;20032;-57
2023/11/05 00:43:55;;;;;;;1.33;0.40;;;;;;;;;;5042930;28;20036;-57
2023/11/05 00:46:21;;;;;;;0.93;0.40;;;;;;;;;;5049983;28;20623;-58
2023/11/05 00:48:47;;;;;;;0.50;0.35;;;;;;;;;;5047794;28;20037;-58
2023/11/05 00:51:14;;;;;;;0.30;0.30;;;;;;;;;;5049009;28;20029;-57
2023/11/05 00:53:40;;;;;;;0.30;0.30;;;;;;;;;;5049866;28;20041;-58
2023/11/05 00:56:06;;;;;;;0.68;0.30;;;;;;;;;;5048684;28;20064;-57
2023/11/05 00:58:32;;;;;;;1.17;0.30;;;;;;;;;;5046109;28;20952;-59
2023/11/05 01:00:58;;;;;;;0.30;0.30;;;;;;;;;;5049142;28;20079;-59
2023/11/05 01:03:24;;;;;;;0.88;0.20;;;;;;;;;;5047585;28;20052;-58
2023/11/05 01:05:51;;;;;;;0.85;0.30;;;;;;;;;;5049023;28;20048;-58
2023/11/05 01:08:17;;;;;;;2.38;0.40;;;;;;;;;;5049168;28;20056;-58
2023/11/05 01:10:43;;;;;;;0.85;0.40;;;;;;;;;;5048429;28;20033;-58
2023/11/05 01:13:09;;;;;;;0.30;0.30;;;;;;;;;;5049269;28;20414;-58
2023/11/05 01:15:35;;;;;;;1.15;0.40;;;;;;;;;;5046628;28;20052;-58
2023/11/05 01:18:01;;;;;;;0.90;0.40;;;;;;;;;;5048165;28;20041;-59
2023/11/05 01:20:27;;;;;;;1.02;0.50;;;;;;;;;;5048799;28;20029;-58
2023/11/05 01:22:54;;;;;;;1.52;0.45;;;;;;;;;;5047796;28;20049;-58
2023/11/05 01:25:20;;;;;;;3.22;0.40;;;;;;;;;;5046728;28;20059;-58
2023/11/05 01:27:46;;;;;;;1.60;0.50;;;;;;;;;;5045329;28;20501;-58
2023/11/05 01:30:12;;;;;;;1.27;0.38;;;;;;;;;;5046033;28;20037;-58
2023/11/05 01:32:39;;;;;;;1.70;0.50;;;;;;;;;;5060123;28;20040;-58
2023/11/05 01:35:05;;;;;;;1.27;0.30;;;;;;;;;;5041820;28;20041;-58
2023/11/05 01:37:32;;;;;;;1.10;0.50;;;;;;;;;;5048221;28;20045;-58
2023/11/05 01:39:58;;;;;;;1.70;0.30;;;;;;;;;;5047179;28;20060;-59
2023/11/05 01:42:24;;;;;;;3.15;0.50;;;;;;;;;;5044048;28;20044;-58
2023/11/05 01:44:50;;;;;;;1.17;0.45;;;;;;;;;;5047446;28;20048;-58
2023/11/05 01:47:17;;;;;;;0.68;0.22;;;;;;;;;;5049018;28;20036;-58
2023/11/05 01:49:43;;;;;;;2.47;0.40;;;;;;;;;;5047790;28;20509;-59
2023/11/05 01:52:09;;;;;;;2.58;0.40;;;;;;;;;;5047114;28;20033;-58
2023/11/05 01:54:37;;;;;;;2.70;0.50;;;;;;;;;;5047709;28;20060;-58
2023/11/05 01:57:04;;;;;;;1.77;0.40;;;;;;;;;;5048532;28;20044;-58
2023/11/05 01:59:31;;;;;;;1.50;0.30;;;;;;;;;;5055767;28;20049;-58
2023/11/05 02:01:59;;;;;;;2.63;0.50;;;;;;;;;;5044741;28;20494;-58
2023/11/05 02:04:25;;;;;;;0.93;0.40;;;;;;;;;;5045506;28;20037;-58
2023/11/05 02:06:52;;;;;;;1.10;0.40;;;;;;;;;;5028042;28;20032;-58
2023/11/05 02:09:18;;;;;;;1.65;0.30;;;;;;;;;;5041764;28;20057;-59
2023/11/05 02:11:44;;;;;;;2.05;0.40;;;;;;;;;;5040048;28;20037;-58
2023/11/05 02:14:14;;;;;;;0.98;0.40;;;;;;;;;;5041237;28;20051;-57
2023/11/05 02:16:41;;;;;;;2.42;0.35;;;;;;;;;;5046184;28;20426;-57
2023/11/05 02:19:07;;;;;;;1.58;0.30;;;;;;;;;;5039570;28;20038;-58
2023/11/05 02:21:41;;;;;;;1.70;0.50;;;;;;;;;;5041317;28;20044;-57
2023/11/05 02:24:07;;;;;;;1.50;0.50;;;;;;;;;;5045559;28;20037;-58
2023/11/05 02:26:33;;;;;;;2.78;0.32;;;;;;;;;;5041449;28;20053;-58
2023/11/05 02:28:59;;;;;;;3.97;0.47;;;;;;;;;;5041180;28;20049;-58
2023/11/05 02:31:26;;;;;;;3.03;0.50;;;;;;;;;;5042678;28;20049;-58
2023/11/05 02:33:52;;;;;;;0.77;0.20;;;;;;;;;;5040529;28;20033;-57
2023/11/05 02:36:18;;;;;;;2.63;0.50;;;;;;;;;;5043597;28;20045;-58
2023/11/05 02:38:44;;;;;;;3.63;0.50;;;;;;;;;;5044292;28;20040;-58
2023/11/05 02:41:12;;;;;;;6.70;0.82;;;;;;;;;;5045227;28;20414;-58
2023/11/05 02:43:39;;;;;;;3.38;0.45;;;;;;;;;;5045120;28;20024;-59
2023/11/05 02:46:06;;;;;;;2.65;0.40;;;;;;;;;;5046174;28;20509;-58
2023/11/05 02:48:33;;;;;;;8.43;0.88;;;;;;;;;;5043910;28;20036;-59
2023/11/05 02:51:00;;;;;;;6.03;0.40;;;;;;;;;;5042836;28;20536;-58
2023/11/05 02:53:26;;;;;;;1.48;0.40;;;;;;;;;;5045310;28;20416;-57
2023/11/05 02:55:53;;;;;;;1.27;0.50;;;;;;;;;;5045574;28;20398;-57
2023/11/05 02:58:19;;;;;;;3.47;1.05;;;;;;;;;;5042387;28;20045;-58
2023/11/05 03:00:46;;;;;;;2.17;0.55;;;;;;;;;;5040486;28;20049;-59
2023/11/05 03:03:12;;;;;;;1.27;0.35;;;;;;;;;;5042607;28;20033;-58
2023/11/05 03:05:43;;;;;;;1.25;0.43;;;;;;;;;;5042932;28;20048;-58
2023/11/05 03:08:11;;;;;;;1.48;0.32;;;;;;;;;;5043449;28;20437;-57
2023/11/05 03:10:38;;;;;;;3.58;0.50;;;;;;;;;;5046335;28;20041;-58
2023/11/05 03:13:04;;;;;;;3.20;0.40;;;;;;;;;;5039519;28;20045;-57
2023/11/05 03:15:31;;;;;;;0.50;0.40;;;;;;;;;;5043505;28;20045;-58
2023/11/05 03:17:57;;;;;;;4.05;0.45;;;;;;;;;;5042967;28;20047;-58
2023/11/05 03:20:23;;;;;;;1.77;0.70;;;;;;;;;;5044869;28;20056;-58
2023/11/05 03:22:49;;;;;;;2.47;0.43;;;;;;;;;;5045591;28;20029;-58
2023/11/05 03:25:15;;;;;;;4.25;0.52;;;;;;;;;;5046700;28;20037;-58
2023/11/05 03:27:41;;;;;;;2.63;0.60;;;;;;;;;;5047672;28;20045;-59
2023/11/05 03:30:08;;;;;;;2.35;0.40;;;;;;;;;;5049153;28;20041;-59
2023/11/05 03:32:34;;;;;;;3.38;0.50;;;;;;;;;;5045793;28;20533;-58
2023/11/05 03:35:03;;;;;;;3.15;0.60;;;;;;;;;;5043762;28;20052;-58
2023/11/05 03:37:30;;;;;;;2.65;0.60;;;;;;;;;;5047015;28;20049;-58
2023/11/05 03:39:56;;;;;;;2.35;0.40;;;;;;;;;;5050233;28;20033;-58
2023/11/05 03:42:22;;;;;;;2.13;0.40;;;;;;;;;;5045188;28;20033;-58
2023/11/05 03:44:48;;;;;;;3.78;0.40;;;;;;;;;;5044565;28;20041;-58
2023/11/05 03:47:14;;;;;;;2.70;0.47;;;;;;;;;;5050055;28;20037;-57
2023/11/05 03:49:40;;;;;;;1.02;0.40;;;;;;;;;;5041997;28;20021;-59
2023/11/05 03:52:07;;;;;;;2.13;0.40;;;;;;;;;;5044620;28;20049;-57
2023/11/05 03:54:33;;;;;;;1.48;0.43;;;;;;;;;;5048898;28;20052;-58
2023/11/05 03:56:59;;;;;;;3.88;0.85;;;;;;;;;;5044384;28;20037;-58
2023/11/05 03:59:26;;;;;;;3.63;0.65;;;;;;;;;;5047810;28;20060;-58
2023/11/05 04:01:52;;;;;;;1.25;0.40;;;;;;;;;;5047222;28;20449;-57
2023/11/05 04:04:18;;;;;;;3.00;0.57;;;;;;;;;;5045137;28;20041;-57
2023/11/05 04:06:45;;;;;;;2.17;0.52;;;;;;;;;;5043558;28;20104;-58
2023/11/05 04:09:11;;;;;;;2.05;0.50;;;;;;;;;;5046347;28;20041;-57
2023/11/05 04:11:38;;;;;;;2.47;0.40;;;;;;;;;;5047767;28;20033;-57
2023/11/05 04:14:04;;;;;;;3.30;0.30;;;;;;;;;;5042877;28;20045;-59
2023/11/05 04:16:30;;;;;;;1.15;0.32;;;;;;;;;;5049145;28;20357;-58
2023/11/05 04:18:57;;;;;;;3.38;0.60;;;;;;;;;;5048894;28;20033;-59
2023/11/05 04:21:23;;;;;;;2.47;0.32;;;;;;;;;;5048006;28;20041;-58
2023/11/05 04:23:49;;;;;;;2.28;0.45;;;;;;;;;;5046134;28;20029;-58
2023/11/05 04:26:15;;;;;;;3.95;0.35;;;;;;;;;;5047766;28;20045;-58
2023/11/05 04:28:41;;;;;;;0.73;0.40;;;;;;;;;;5042625;28;20052;-59
2023/11/05 04:31:08;;;;;;;1.08;0.40;;;;;;;;;;5043250;28;20410;-58
2023/11/05 04:33:34;;;;;;;4.65;0.55;;;;;;;;;;5045969;28;20064;-58
2023/11/05 04:36:00;;;;;;;2.30;0.50;;;;;;;;;;5045862;28;20052;-58
2023/11/05 04:38:26;;;;;;;3.35;0.47;;;;;;;;;;5042456;28;20409;-58
2023/11/05 04:40:52;;;;;;;1.23;0.73;;;;;;;;;;5046776;28;20509;-57
2023/11/05 04:43:18;;;;;;;2.03;0.30;;;;;;;;;;5045093;28;20041;-58
2023/11/05 04:45:44;;;;;;;1.95;0.45;;;;;;;;;;5044461;28;20045;-57
2023/11/05 04:48:11;;;;;;;2.42;0.32;;;;;;;;;;5046722;28;20036;-58
2023/11/05 04:50:37;;;;;;;2.97;0.40;;;;;;;;;;5046433;28;20051;-57
2023/11/05 04:53:03;;;;;;;2.63;0.55;;;;;;;;;;5045535;28;20045;-59
2023/11/05 04:55:29;;;;;;;4.88;0.45;;;;;;;;;;5044418;28;20049;-58
2023/11/05 04:57:56;;;;;;;1.67;0.57;;;;;;;;;;5043766;28;20045;-57
2023/11/05 05:00:22;;;;;;;1.02;0.30;;;;;;;;;;5048453;28;20071;-59
2023/11/05 05:02:49;;;;;;;2.40;0.93;;;;;;;;;;5044533;28;20048;-59
2023/11/05 05:05:15;;;;;;;0.70;0.30;;;;;;;;;;5044100;28;20532;-58
2023/11/05 05:07:41;;;;;;;1.15;0.38;;;;;;;;;;5047970;28;20063;-59
2023/11/05 05:10:08;;;;;;;2.22;0.50;;;;;;;;;;5048796;28;20422;-58
2023/11/05 05:12:35;;;;;;;1.75;0.30;;;;;;;;;;5048260;28;20037;-58
2023/11/05 05:15:05;;;;;;;3.03;0.50;;;;;;;;;;5045134;28;20033;-58
2023/11/05 05:17:32;;;;;;;1.17;0.50;;;;;;;;;;5048588;28;20049;-58
2023/11/05 05:19:59;;;;;;;0.73;0.43;;;;;;;;;;5044475;28;20045;-58
2023/11/05 05:22:25;;;;;;;1.48;0.32;;;;;;;;;;5048991;28;20049;-58
2023/11/05 05:24:52;;;;;;;3.20;0.60;;;;;;;;;;5047331;28;20041;-57
2023/11/05 05:27:19;;;;;;;2.45;0.60;;;;;;;;;;5009482;28;1079947;-58
2023/11/05 05:29:45;;;;;;;1.10;0.40;;;;;;;;;;5040590;28;20044;-58
2023/11/05 05:32:11;;;;;;;1.20;0.30;;;;;;;;;;5046963;28;20044;-57
2023/11/05 05:34:37;;;;;;;2.95;0.28;;;;;;;;;;5046601;28;20037;-58
2023/11/05 05:37:04;;;;;;;0.90;0.32;;;;;;;;;;5042579;28;20059;-58
2023/11/05 05:39:30;;;;;;;0.95;0.20;;;;;;;;;;5045782;28;20121;-59
2023/11/05 05:41:57;;;;;;;2.50;0.38;;;;;;;;;;5047891;28;20036;-58
2023/11/05 05:44:23;;;;;;;0.55;0.30;;;;;;;;;;5043041;28;20410;-57
2023/11/05 05:46:49;;;;;;;1.95;0.40;;;;;;;;;;5046871;28;20059;-57
2023/11/05 05:49:15;;;;;;;1.58;0.40;;;;;;;;;;5047861;28;20029;-58
2023/11/05 05:51:41;;;;;;;0.75;0.40;;;;;;;;;;5041947;28;20502;-58
2023/11/05 05:54:08;;;;;;;0.93;0.25;;;;;;;;;;5046631;28;20033;-58
2023/11/05 05:56:34;;;;;;;1.45;0.30;;;;;;;;;;5047884;28;20049;-57
2023/11/05 05:59:00;;;;;;;3.10;0.47;;;;;;;;;;5043944;28;20045;-58
2023/11/05 06:01:26;;;;;;;0.30;0.30;;;;;;;;;;5043873;28;20064;-58
2023/11/05 06:03:52;;;;;;;0.63;0.22;;;;;;;;;;5048069;28;20063;-58
2023/11/05 06:06:18;;;;;;;0.85;0.30;;;;;;;;;;5047196;28;20053;-57
2023/11/05 06:08:45;;;;;;;2.42;0.35;;;;;;;;;;5044881;28;20044;-58
2023/11/05 06:11:11;;;;;;;0.90;0.30;;;;;;;;;;5046845;28;20025;-58
2023/11/05 06:13:37;;;;;;;1.27;0.30;;;;;;;;;;5045484;28;20033;-58
2023/11/05 06:16:04;;;;;;;1.02;0.30;;;;;;;;;;5047125;28;20049;-59
2023/11/05 06:18:30;;;;;;;1.55;0.20;;;;;;;;;;5044920;28;20045;-60
2023/11/05 06:20:56;;;;;;;1.58;0.30;;;;;;;;;;5043439;28;20068;-58
2023/11/05 06:23:23;;;;;;;1.75;0.20;;;;;;;;;;5046533;28;20040;-58
2023/11/05 06:25:49;;;;;;;0.93;0.20;;;;;;;;;;5046143;28;20049;-59
2023/11/05 06:28:15;;;;;;;0.75;0.20;;;;;;;;;;5042166;28;20033;-59
2023/11/05 06:30:42;;;;;;;0.57;0.43;;;;;;;;;;5041350;28;20052;-58
2023/11/05 06:33:08;;;;;;;0.57;0.20;;;;;;;;;;5046727;28;20049;-57
2023/11/05 06:35:34;;;;;;;0.20;0.20;;;;;;;;;;5045054;28;20044;-58
2023/11/05 06:38:00;;;;;;;1.23;0.50;;;;;;;;;;5044608;28;20112;-58
2023/11/05 06:40:26;;;;;;;0.65;0.40;;;;;;;;;;5044115;28;20059;-58
2023/11/05 06:42:52;;;;;;;1.33;0.28;;;;;;;;;;5044055;28;20505;-58
2023/11/05 06:45:18;;;;;;;0.20;0.10;;;;;;;;;;5046666;28;20049;-57
2023/11/05 06:47:44;;;;;;;0.20;0.20;;;;;;;;;;5045964;28;20037;-58
2023/11/05 06:50:11;;;;;;;0.30;0.20;;;;;;;;;;5046491;28;20474;-59
2023/11/05 06:52:37;;;;;;;0.75;0.30;;;;;;;;;;5044490;28;20036;-59
2023/11/05 06:55:03;;;;;;;1.92;0.70;;;;;;;;;;5046171;28;20049;-59
2023/11/05 06:57:33;;;;;;;0.52;0.20;;;;;;;;;;5045148;28;20028;-59
2023/11/05 07:00:00;;;;;;;0.43;0.10;;;;;;;;;;5046875;28;20433;-59
2023/11/05 07:02:26;;;;;;;0.60;0.20;;;;;;;;;;5043368;28;20037;-58
2023/11/05 07:04:52;;;;;;;0.80;0.10;;;;;;;;;;5045978;28;20045;-58
2023/11/05 07:07:18;;;;;;;0.68;0.20;;;;;;;;;;5047720;28;20090;-58
2023/11/05 07:09:44;;;;;;;0.30;0.20;;;;;;;;;;5046691;28;20040;-58
2023/11/05 07:12:11;;;;;;;0.80;0.13;;;;;;;;;;5047878;28;20049;-58
2023/11/05 07:14:37;;;;;;;0.32;0.20;;;;;;;;;;5045236;28;20578;-58
2023/11/05 07:17:04;;;;;;;1.40;0.30;;;;;;;;;;5047682;28;20045;-58
2023/11/05 07:19:30;;;;;;;0.20;0.20;;;;;;;;;;5047233;28;20041;-58
2023/11/05 07:21:56;;;;;;;0.13;0.13;;;;;;;;;;5047483;28;20040;-58
2023/11/05 07:24:24;;;;;;;0.13;0.13;;;;;;;;;;5047402;28;20036;-58
2023/11/05 07:26:50;;;;;;;0.82;0.20;;;;;;;;;;5044497;28;20033;-58
2023/11/05 07:29:17;;;;;;;0.43;0.30;;;;;;;;;;5039775;28;20383;-59
2023/11/05 07:31:43;;;;;;;1.13;0.38;;;;;;;;;;5045809;28;20526;-60
2023/11/05 07:34:11;;;;;;;0.50;0.28;;;;;;;;;;5043168;28;20045;-59
2023/11/05 07:36:38;;;;;;;0.25;0.20;;;;;;;;;;5040476;28;20037;-59
2023/11/05 07:39:07;;;;;;;0.47;0.47;;;;;;;;;;5038205;28;20057;-60
2023/11/05 07:41:34;;;;;;;0.30;0.30;;;;;;;;;;5039788;28;20049;-58
2023/11/05 07:44:00;;;;;;;0.40;0.20;;;;;;;;;;5038474;28;20049;-59
2023/11/05 07:46:26;;;;;;;0.35;0.20;;;;;;;;;;5037939;28;20033;-60
2023/11/05 07:48:52;;;;;;;0.80;0.20;;;;;;;;;;5038951;28;20056;-59
2023/11/05 07:51:22;;;;;;;1.25;0.40;;;;;;;;;;5039270;28;20029;-60
2023/11/05 07:53:49;;;;;;;0.52;0.30;;;;;;;;;;5042179;28;20052;-60
2023/11/05 07:56:18;;;;;;;1.40;0.30;;;;;;;;;;5046148;28;20047;-58
2023/11/05 07:58:45;;;;;;;0.52;0.40;;;;;;;;;;5036269;28;20502;-58
2023/11/05 08:01:14;;;;;;;1.08;0.50;;;;;;;;;;5038343;28;20038;-60
2023/11/05 08:03:41;;;;;;;0.98;0.20;;;;;;;;;;5040869;28;20048;-60
2023/11/05 08:06:07;;;;;;;0.22;0.10;;;;;;;;;;5037937;28;20049;-59
2023/11/05 08:08:34;;;;;;;0.20;0.20;;;;;;;;;;5043199;28;20036;-60
2023/11/05 08:11:00;;;;;;;1.63;0.40;;;;;;;;;;5042555;28;20056;-60
2023/11/05 08:13:26;;;;;;;0.88;0.47;;;;;;;;;;5042583;28;20033;-60
2023/11/05 08:15:52;;;;;;;0.43;0.40;;;;;;;;;;5044578;28;20053;-62
2023/11/05 08:18:19;;;;;;;0.47;0.47;;;;;;;;;;5047550;28;20051;-61
2023/11/05 08:20:45;;;;;;;0.80;0.30;;;;;;;;;;5047104;28;20041;-62
2023/11/05 08:23:14;;;;;;;1.92;0.70;;;;;;;;;;5049189;28;20037;-60
2023/11/05 08:25:40;;;;;;;0.60;0.33;;;;;;;;;;5039988;28;20045;-60
2023/11/05 08:28:06;;;;;;;3.78;0.47;;;;;;;;;;5043238;28;20049;-60
2023/11/05 08:30:32;;;;;;;2.40;0.63;;;;;;;;;;5043206;28;20418;-60
2023/11/05 08:32:58;;;;;;;4.75;0.60;;;;;;;;;;5040921;28;20053;-59
2023/11/05 08:35:24;;;;;;;0.40;0.32;;;;;;;;;;5044272;28;20497;-59
2023/11/05 08:37:51;;;;;;;6.78;0.30;;;;;;;;;;5048618;28;20409;-58
2023/11/05 08:40:18;;;;;;;0.63;0.20;;;;;;;;;;5045460;28;20037;-59
2023/11/05 08:42:44;;;;;;;4.05;1.25;;;;;;;;;;5045682;28;20029;-59
2023/11/05 08:45:13;;;;;;;4.63;0.70;;;;;;;;;;5048358;28;20032;-59
2023/11/05 08:47:40;;;;;;;1.58;0.50;;;;;;;;;;5045181;28;20072;-58
2023/11/05 08:50:07;;;;;;;1.95;0.50;;;;;;;;;;5045489;28;20064;-59
2023/11/05 08:52:34;;;;;;;1.38;0.30;;;;;;;;;;5049638;28;20025;-59
2023/11/05 08:55:03;;;;;;;0.75;0.50;;;;;;;;;;5041331;28;20048;-59
2023/11/05 08:57:29;;;;;;;1.02;0.30;;;;;;;;;;5045089;28;20053;-59
2023/11/05 08:59:55;;;;;;;2.20;0.50;;;;;;;;;;5045358;28;20044;-61
2023/11/05 09:02:23;;;;;;;0.35;0.28;;;;;;;;;;5046639;28;20533;-61
2023/11/05 09:04:49;;;;;;;2.40;0.30;;;;;;;;;;5042548;28;20037;-61
2023/11/05 09:07:15;;;;;;;1.10;0.57;;;;;;;;;;5045275;28;20414;-59
2023/11/05 09:09:41;;;;;;;2.22;0.40;;;;;;;;;;5041309;28;20044;-59
2023/11/05 09:12:10;;;;;;;0.40;0.30;;;;;;;;;;5048340;28;20573;-59
2023/11/05 09:14:36;;;;;;;1.17;0.60;;;;;;;;;;5040835;28;20033;-60
2023/11/05 09:17:08;;;;;;;0.65;0.40;;;;;;;;;;5048879;28;20458;-60
2023/11/05 09:19:35;;;;;;;0.63;0.40;;;;;;;;;;5043615;28;20057;-60
2023/11/05 09:22:01;;;;;;;1.65;0.40;;;;;;;;;;5048002;28;20049;-60
2023/11/05 09:24:27;;;;;;;1.63;0.40;;;;;;;;;;5049096;28;20401;-60
2023/11/05 09:26:54;;;;;;;0.65;0.20;;;;;;;;;;5046814;28;20029;-59
2023/11/05 09:29:21;;;;;;;1.80;1.25;;;;;;;;;;5043917;28;20036;-60
2023/11/05 09:31:50;;;;;;;0.75;0.50;;;;;;;;;;5041833;28;20025;-59
2023/11/05 09:34:16;;;;;;;0.80;0.40;;;;;;;;;;5043721;28;20060;-59
2023/11/05 09:36:44;;;;;;;0.35;0.30;;;;;;;;;;5049346;28;20041;-60
2023/11/05 09:39:12;;;;;;;1.30;0.40;;;;;;;;;;5045287;28;20049;-59
2023/11/05 09:41:38;;;;;;;1.10;0.50;;;;;;;;;;5046938;28;20040;-59
2023/11/05 09:44:08;;;;;;;0.50;0.30;;;;;;;;;;5044570;28;20638;-60
2023/11/05 09:46:36;;;;;;;0.88;0.30;;;;;;;;;;5047932;28;20052;-58
2023/11/05 09:49:02;;;;;;;1.20;0.40;;;;;;;;;;5046896;28;20403;-60
2023/11/05 09:51:28;;;;;;;0.20;0.20;;;;;;;;;;5047399;28;20037;-60
2023/11/05 09:53:55;;;;;;;0.50;0.20;;;;;;;;;;5046023;28;20056;-60
2023/11/05 09:56:23;;;;;;;1.17;0.20;;;;;;;;;;5045680;28;20052;-60
2023/11/05 09:58:50;;;;;;;0.82;0.35;;;;;;;;;;5044039;28;20045;-60
2023/11/05 10:01:17;;;;;;;0.40;0.30;;;;;;;;;;5045341;28;20052;-60
2023/11/05 10:03:43;;;;;;;1.25;0.57;;;;;;;;;;5044295;28;20036;-59
2023/11/05 10:06:15;;;;;;;0.80;0.57;;;;;;;;;;5044197;28;20413;-60
2023/11/05 10:08:42;;;;;;;0.25;0.20;;;;;;;;;;5047042;28;20051;-59
2023/11/05 10:11:08;;;;;;;0.30;0.30;;;;;;;;;;5045023;28;20041;-59
2023/11/05 10:13:35;;;;;;;0.47;0.40;;;;;;;;;;5044268;28;20037;-59
2023/11/05 10:16:04;;;;;;;3.25;0.60;;;;;;;;;;5043986;28;20055;-59
2023/11/05 10:18:36;;;;;;;1.50;0.30;;;;;;;;;;5047011;28;20035;-59
2023/11/05 10:21:04;;;;;;;1.40;0.40;;;;;;;;;;5042132;28;20034;-59
2023/11/05 10:23:47;;;;;;;2.75;0.60;;;;;;;;;;5044719;28;20049;-59
2023/11/05 10:26:25;;;;;;;3.03;0.57;;;;;;;;;;5041184;28;20049;-58
2023/11/05 10:28:53;;;;;;;3.95;0.40;;;;;;;;;;5042101;28;20044;-59
2023/11/05 10:31:23;;;;;;;0.95;0.35;;;;;;;;;;5043586;28;20037;-59
2023/11/05 10:33:51;;;;;;;2.70;1.00;;;;;;;;;;5047452;28;20501;-59
2023/11/05 10:36:19;;;;;;;0.70;0.60;;;;;;;;;;5046464;28;20112;-60
2023/11/05 10:38:47;;;;;;;2.00;0.50;;;;;;;;;;5041634;28;20044;-59
2023/11/05 10:41:16;;;;;;;1.23;0.63;;;;;;;;;;5047120;28;20502;-60
2023/11/05 10:43:44;;;;;;;1.77;0.90;;;;;;;;;;5046024;28;20047;-58
2023/11/05 10:46:10;;;;;;;1.13;0.50;;;;;;;;;;5042456;28;20052;-59
2023/11/05 10:48:37;;;;;;;0.50;0.40;;;;;;;;;;5044197;28;20032;-59
2023/11/05 10:51:04;;;;;;;3.20;0.60;;;;;;;;;;5043308;28;20040;-59
2023/11/05 10:53:30;;;;;;;0.90;0.45;;;;;;;;;;5047302;28;20028;-60
2023/11/05 10:55:57;;;;;;;1.67;0.50;;;;;;;;;;5046627;28;20049;-59
2023/11/05 10:58:38;;;;;;;0.70;0.40;;;;;;;;;;5042526;28;20498;-58
2023/11/05 11:01:14;;;;;;;1.52;0.75;;;;;;;;;;5040003;28;20029;-59
2023/11/05 11:03:40;;;;;;;3.83;0.65;;;;;;;;;;5045850;28;20049;-60
2023/11/05 11:06:06;;;;;;;1.05;0.40;;;;;;;;;;5042040;28;20057;-61
2023/11/05 11:08:34;;;;;;;0.60;0.50;;;;;;;;;;5049959;28;20049;-60
2023/11/05 11:11:11;;;;;;;0.75;0.50;;;;;;;;;;5050010;28;20654;-62
2023/11/05 11:13:46;;;;;;;1.85;0.50;;;;;;;;;;5039175;28;20033;-61
2023/11/05 11:16:20;;;;;;;2.70;0.82;;;;;;;;;;5038051;28;20520;-61
2023/11/05 11:18:49;;;;;;;3.08;0.60;;;;;;;;;;5044840;28;20040;-62
2023/11/05 11:21:15;;;;;;;2.20;0.50;;;;;;;;;;5037994;28;20045;-60
2023/11/05 11:23:42;;;;;;;2.05;0.60;;;;;;;;;;5043504;28;20561;-60
2023/11/05 11:26:22;;;;;;;1.00;0.40;;;;;;;;;;5038203;28;20545;-62
2023/11/05 11:29:02;;;;;;;2.80;0.70;;;;;;;;;;5043077;28;20596;-62
2023/11/05 11:31:28;;;;;;;;;;;;;;;;;;5047873;28;20048;-62
2023/11/05 11:33:54;;;;;;;1.85;1.10;;;;;;;;;;5047002;28;19927;-60
2023/11/05 11:36:20;;;;;;;6.05;1.83;;;;;;;;;;5046549;28;20399;-62
2023/11/05 11:38:47;;;;;;;1.23;0.60;;;;;;;;;;5046803;28;20032;-63
2023/11/05 11:41:13;;;;;;;0.95;0.50;;;;;;;;;;5047036;28;20067;-64
2023/11/05 11:43:40;;;;;;;0.95;0.60;;;;;;;;;;5043681;28;20061;-62
2023/11/05 11:46:07;;;;;;;1.92;0.73;;;;;;;;;;5039996;28;20045;-60
2023/11/05 11:48:33;;;;;;;1.75;0.60;;;;;;;;;;5050103;28;20052;-61
2023/11/05 11:51:06;;;;;;;0.95;0.57;;;;;;;;;;5050510;28;20036;-62
2023/11/05 11:53:37;;;;;;;1.42;0.70;;;;;;;;;;5050943;28;20025;-60
2023/11/05 11:56:04;;;;;;;0.55;0.40;;;;;;;;;;5048040;28;20160;-60
2023/11/05 11:58:35;;;;;;;0.52;0.45;;;;;;;;;;5047589;28;20036;-61
2023/11/05 12:01:01;;;;;;;1.30;0.65;;;;;;;;;;5050595;28;20036;-59
2023/11/05 12:03:29;;;;;;;0.38;0.30;;;;;;;;;;5044893;28;20029;-60
2023/11/05 12:05:56;;;;;;;1.20;0.40;;;;;;;;;;5049453;28;20045;-61
2023/11/05 12:08:52;;;;;;;101.68;91.70;;;;;;;;;;5044533;28;20045;-59
2023/11/05 12:11:19;;;;;;;0.60;0.50;;;;;;;;;;5045438;28;20044;-61
2023/11/05 12:13:46;;;;;;;1.70;0.50;;;;;;;;;;5047017;28;20036;-59
2023/11/05 12:16:17;;;;;;;6.45;5.80;;;;;;;;;;5045568;28;20040;-61
2023/11/05 12:18:44;;;;;;;0.88;0.40;;;;;;;;;;5060084;28;20391;-61
2023/11/05 12:21:13;;;;;;;1.17;0.50;;;;;;;;;;5048016;28;20383;-60
2023/11/05 12:23:43;;;;;;;0.50;0.40;;;;;;;;;;5050093;28;20056;-60
2023/11/05 12:26:16;;;;;;;1.17;0.40;;;;;;;;;;5047775;28;20533;-57
2023/11/05 12:28:44;;;;;;;0.90;0.68;;;;;;;;;;5044483;28;20029;-59
2023/11/05 12:31:10;;;;;;;3.15;1.48;;;;;;;;;;5044858;28;20268;-59
2023/11/05 12:33:38;;;;;;;2.65;1.33;;;;;;;;;;5045442;28;20433;-59
2023/11/05 12:36:06;;;;;;;3.60;0.63;;;;;;;;;;5042198;28;20063;-59
2023/11/05 12:38:33;;;;;;;0.85;0.50;;;;;;;;;;5043820;28;20045;-59
2023/11/05 12:40:59;;;;;;;0.73;0.40;;;;;;;;;;5046365;28;20060;-59
2023/11/05 12:43:25;;;;;;;0.40;0.40;;;;;;;;;;5049886;28;20037;-59
2023/11/05 12:45:55;;;;;;;1.63;0.60;;;;;;;;;;5048928;28;20044;-58
2023/11/05 12:48:23;;;;;;;1.20;0.60;;;;;;;;;;5049022;28;20037;-58
2023/11/05 12:50:50;;;;;;;1.88;0.82;;;;;;;;;;5049467;28;20044;-58
2023/11/05 12:53:18;;;;;;;2.17;1.13;;;;;;;;;;5046793;28;20049;-59
2023/11/05 12:55:44;;;;;;;2.72;0.65;;;;;;;;;;5047976;28;20056;-58
2023/11/05 12:58:10;;;;;;;2.35;0.88;;;;;;;;;;5040954;28;20055;-59
2023/11/05 13:00:36;;;;;;;1.30;0.52;;;;;;;;;;5042417;28;20028;-60
2023/11/05 13:03:04;;;;;;;2.55;0.57;;;;;;;;;;5049213;28;20072;-58
2023/11/05 13:05:31;;;;;;;1.52;0.95;;;;;;;;;;5046600;28;20049;-59
2023/11/05 13:07:57;;;;;;;2.88;0.70;;;;;;;;;;5045833;28;20053;-58
2023/11/05 13:10:24;;;;;;;1.00;0.70;;;;;;;;;;5049705;28;20037;-58
2023/11/05 13:12:50;;;;;;;2.42;0.85;;;;;;;;;;5041027;28;20032;-58
2023/11/05 13:15:17;;;;;;;2.38;0.82;;;;;;;;;;5047869;28;20049;-58
2023/11/05 13:17:44;;;;;;;1.90;0.55;;;;;;;;;;5044846;28;20033;-59
2023/11/05 13:20:11;;;;;;;1.30;0.50;;;;;;;;;;5049183;28;20102;-59
2023/11/05 13:22:40;;;;;;;1.05;0.63;;;;;;;;;;5049502;28;20029;-58
2023/11/05 13:25:09;;;;;;;2.00;0.50;;;;;;;;;;5048995;28;20057;-58
2023/11/05 13:27:36;;;;;;;5.47;2.20;;;;;;;;;;5048555;28;20036;-58
2023/11/05 13:30:03;;;;;;;4.18;1.60;;;;;;;;;;5043839;28;20040;-58
2023/11/05 13:32:29;;;;;;;1.75;0.60;;;;;;;;;;5044134;28;20056;-58
2023/11/05 13:34:55;;;;;;;1.08;0.77;;;;;;;;;;5040971;28;20041;-58
2023/11/05 13:37:22;;;;;;;5.47;2.10;;;;;;;;;;5046054;28;20041;-58
2023/11/05 13:39:48;;;;;;;1.15;0.80;;;;;;;;;;5043182;28;20419;-58
2023/11/05 13:42:15;;;;;;;2.03;0.77;;;;;;;;;;5046864;28;20052;-58
2023/11/05 13:44:41;;;;;;;1.50;0.77;;;;;;;;;;5047122;28;20044;-58
2023/11/05 13:47:07;;;;;;;2.85;0.88;;;;;;;;;;5048025;28;20530;-58
2023/11/05 13:49:36;;;;;;;0.73;0.50;;;;;;;;;;5046523;28;20037;-57
2023/11/05 13:52:03;;;;;;;2.45;0.60;;;;;;;;;;5042376;28;20032;-58
2023/11/05 13:54:29;;;;;;;1.00;0.60;;;;;;;;;;5046945;28;20513;-58
2023/11/05 13:56:57;;;;;;;1.60;0.70;;;;;;;;;;5046408;28;20029;-58
2023/11/05 13:59:24;;;;;;;1.10;0.60;;;;;;;;;;5046320;28;20033;-58
2023/11/05 14:01:51;;;;;;;0.95;0.50;;;;;;;;;;5046738;28;20028;-58
2023/11/05 14:04:17;;;;;;;1.13;0.40;;;;;;;;;;5044677;28;20405;-58
2023/11/05 14:06:44;;;;;;;1.05;0.77;;;;;;;;;;5045127;28;20029;-58
2023/11/05 14:09:10;;;;;;;0.47;0.47;;;;;;;;;;5042284;28;20049;-58
2023/11/05 14:11:39;;;;;;;0.70;0.28;;;;;;;;;;5043827;28;20052;-58
2023/11/05 14:14:08;;;;;;;0.30;0.30;;;;;;;;;;5045068;28;20318;-58
2023/11/05 14:16:35;;;;;;;1.17;0.40;;;;;;;;;;5041188;28;20049;-59
2023/11/05 14:19:01;;;;;;;1.10;0.38;;;;;;;;;;5039249;28;20513;-58
2023/11/05 14:21:28;;;;;;;0.60;0.55;;;;;;;;;;5045952;28;20049;-58
2023/11/05 14:23:54;;;;;;;0.57;0.50;;;;;;;;;;5046577;28;20038;-58
2023/11/05 14:26:20;;;;;;;0.70;0.30;;;;;;;;;;5043669;28;20064;-58
2023/11/05 14:28:46;;;;;;;1.23;0.50;;;;;;;;;;5045749;28;20037;-57
2023/11/05 14:31:13;;;;;;;1.00;0.80;;;;;;;;;;5045032;28;20045;-59
2023/11/05 14:33:39;;;;;;;1.13;0.52;;;;;;;;;;5046057;28;20032;-59
2023/11/05 14:36:05;;;;;;;1.38;0.82;;;;;;;;;;5046388;28;20041;-58
2023/11/05 14:38:31;;;;;;;0.57;0.38;;;;;;;;;;5044405;28;20045;-58
2023/11/05 14:40:58;;;;;;;1.80;0.40;;;;;;;;;;5045726;28;20045;-58
2023/11/05 14:43:25;;;;;;;0.63;0.40;;;;;;;;;;5047744;28;20036;-58